Airfield :
LOGIN :

Register | Disclaimer

   EN    FR    IT 

 










Legend :    VFR   Marginal VFR   IFR   Intensive IFR   Very Intensive IFR
Visi :
Ceiling :
>= 8 km
>= 3000ft
5 to 8 km
1000 to 3000 ft
1500m to 5 km
500 to 1000 ft
800 to 1500m
200 to 500 ft
< 800m
< 200 ft
Symbols :   Thunderstorms  Fog  Heavy snow  Heavy precipitations  Wind > 20 kt
SIGMETs :     Misc.  Thunderstorms  Icing  Turbulence  Mountain Waves  Volcanic Ashes







- Airport Elevation : 436 ft
- IATA code : ANG
- Download approach charts


LFBU - Angoulême Brie Champniers

CURRENT METAR :
  • 162000Z AUTO 17008KT 9999 DZ BKN014 BKN020 BKN026 07/06 Q1013 TEMPO NSW

EXPIRED METARs :
  • 161930Z AUTO 17009KT 9999 FEW014 SCT025 OVC030 07/05 Q1013 TEMPO OVC010
  • 161900Z AUTO 18008KT 9999 FEW022 SCT029 BKN035 07/05 Q1014 TEMPO OVC010
  • 161830Z AUTO 17008KT 140V210 9999 BKN034 OVC060 07/05 Q1014 TEMPO OVC010
  • 161800Z AUTO 17006KT 130V200 9999 BKN039 OVC056 06/04 Q1014 TEMPO OVC010
  • 161730Z AUTO 16005KT CAVOK 06/04 Q1014 TEMPO OVC010

TAF TAF LFBU
Valid from the 16 at 18:00 until the 17 at 18:00 UTC


161700Z 1618/1718 17006KT 9999 OVC025
TEMPO 1618/1622 -RADZ OVC010
TEMPO 1622/1702 3000 RA OVC005
TEMPO 1702/1710 BKN002
PROB40
TEMPO 1702/1710 3000 SHRA
BECMG 1712/1714 NSW SCT026
No reported NOTAMs for that airfield.



MET'MAP, your aeronautical weather chart ! - Copyright ORBIFLY December 2007 - Disclaimer

ORBIFLY MET'MAP TEAM :

Programming & Development : Alexandra Zaïnal
Concept & Development : Baudouin d'Aumeries
Co-Development & Prog : Marc-Olivier Méhu
Technical & hardware support : Manuel Goepfert

Contact : metmap@orbifly.com




SOURCES & CREDITS :

   NOAA